createdAt,value
2019-04-16T00:02:00.207Z,1.00
2019-04-16T00:04:50.517Z,99.90
2019-04-16T00:07:54.922Z,24.00
2019-04-16T00:10:32.185Z,99.90
2019-04-16T00:13:14.796Z,23.20
2019-04-16T00:15:44.729Z,99.90
2019-04-16T00:18:18.425Z,1.00
2019-04-16T00:21:09.505Z,1.00
2019-04-16T00:23:55.576Z,1.00
2019-04-16T00:26:26.785Z,99.90
2019-04-16T00:29:01.613Z,99.90
2019-04-16T00:31:28.524Z,99.90
2019-04-16T00:33:58.362Z,1.00
2019-04-16T00:36:28.319Z,1.00
2019-04-16T00:38:58.204Z,1.00
2019-04-16T00:41:28.168Z,99.90
2019-04-16T00:43:58.086Z,1.00
2019-04-16T00:46:27.960Z,1.00
2019-04-16T00:48:57.794Z,1.00
2019-04-16T00:51:27.642Z,1.00
2019-04-16T00:53:58.043Z,1.00
2019-04-16T00:56:28.523Z,27.40
2019-04-16T00:58:58.322Z,1.00
2019-04-16T01:01:28.089Z,1.00
2019-04-16T01:03:57.754Z,1.00
2019-04-16T01:06:27.532Z,1.00
2019-04-16T01:08:57.455Z,1.00
2019-04-16T01:11:27.369Z,1.00
2019-04-16T01:13:57.240Z,1.00
2019-04-16T01:16:27.186Z,1.00
2019-04-16T01:18:57.118Z,1.00
2019-04-16T01:21:26.922Z,1.00
2019-04-16T01:23:56.608Z,36.10
2019-04-16T01:26:26.879Z,99.90
2019-04-16T01:29:10.394Z,99.90
2019-04-16T01:31:59.114Z,13.10
2019-04-16T01:34:47.123Z,1.00
2019-04-16T01:37:25.591Z,44.30
2019-04-16T01:39:56.485Z,1.00
2019-04-16T01:42:35.981Z,53.30
2019-04-16T01:45:07.227Z,99.90
2019-04-16T01:47:37.345Z,99.90
2019-04-16T01:50:13.000Z,99.90
2019-04-16T01:52:39.842Z,99.90
2019-04-16T01:55:09.816Z,99.90
2019-04-16T01:57:39.448Z,99.90
2019-04-16T02:00:10.040Z,99.90
2019-04-16T02:02:39.878Z,99.90
2019-04-16T02:05:09.664Z,99.90
2019-04-16T02:07:39.408Z,1.00
2019-04-16T02:10:11.168Z,1.00
2019-04-16T02:12:43.368Z,1.00
2019-04-16T02:15:12.424Z,1.00
2019-04-16T02:17:42.126Z,1.00
2019-04-16T02:20:12.325Z,1.00
2019-04-16T02:22:42.332Z,1.00
2019-04-16T02:25:16.422Z,1.00
2019-04-16T02:27:44.959Z,1.00
2019-04-16T02:30:14.786Z,1.00
2019-04-16T02:32:44.569Z,1.00
2019-04-16T02:35:14.248Z,1.00
2019-04-16T02:37:44.729Z,1.00
2019-04-16T02:40:18.909Z,1.00
2019-04-16T02:42:51.503Z,1.00
2019-04-16T02:45:23.735Z,1.00
2019-04-16T02:47:54.708Z,1.00
2019-04-16T02:50:42.303Z,1.00
2019-04-16T02:53:31.697Z,1.00
2019-04-16T02:56:25.159Z,1.00
2019-04-16T02:59:12.207Z,1.00
2019-04-16T03:01:56.175Z,1.00
2019-04-16T03:04:30.196Z,1.00
2019-04-16T03:07:03.305Z,1.00
2019-04-16T03:09:34.007Z,1.00
2019-04-16T03:12:05.699Z,1.00
2019-04-16T03:14:40.301Z,1.00
2019-04-16T03:17:29.440Z,1.00
2019-04-16T03:20:01.797Z,1.00
2019-04-16T03:22:37.008Z,1.00
2019-04-16T03:25:12.578Z,1.00
2019-04-16T03:27:51.461Z,1.00
2019-04-16T03:30:24.799Z,1.00
2019-04-16T03:32:55.142Z,1.00
2019-04-16T03:35:27.130Z,1.00
2019-04-16T03:38:04.946Z,1.00
2019-04-16T03:40:36.250Z,1.00
2019-04-16T03:43:13.605Z,1.00
2019-04-16T03:45:44.558Z,1.00
2019-04-16T03:48:25.198Z,1.00
2019-04-16T03:51:03.663Z,1.00
2019-04-16T03:53:46.574Z,1.00
2019-04-16T03:56:17.511Z,1.00
2019-04-16T03:58:49.289Z,1.00
2019-04-16T04:01:22.733Z,1.00
2019-04-16T04:03:54.470Z,1.00
2019-04-16T04:06:26.048Z,1.00
2019-04-16T04:09:05.696Z,1.00
2019-04-16T04:11:40.853Z,1.00
2019-04-16T04:14:10.339Z,1.00
2019-04-16T04:16:45.005Z,1.00
2019-04-16T04:19:16.048Z,1.00
2019-04-16T04:21:50.567Z,1.00
2019-04-16T04:24:19.630Z,1.00
2019-04-16T04:26:49.578Z,1.00
2019-04-16T04:29:20.706Z,1.00
2019-04-16T04:31:50.954Z,1.00
2019-04-16T04:34:20.802Z,1.00
2019-04-16T04:36:50.514Z,1.00
2019-04-16T04:39:20.216Z,1.00
2019-04-16T04:41:52.590Z,1.00
2019-04-16T04:44:26.119Z,1.00
2019-04-16T04:46:57.662Z,1.00
2019-04-16T04:49:30.345Z,1.00
2019-04-16T04:51:59.916Z,1.00
2019-04-16T04:54:32.057Z,1.00
2019-04-16T04:57:02.313Z,1.00
2019-04-16T04:59:37.816Z,1.00
2019-04-16T05:02:10.848Z,1.00
2019-04-16T05:04:49.574Z,1.00
2019-04-16T05:07:21.165Z,1.00
2019-04-16T05:09:50.960Z,1.00
2019-04-16T05:12:21.606Z,1.00
2019-04-16T05:14:58.418Z,1.00
2019-04-16T05:17:31.691Z,1.00
2019-04-16T05:20:02.866Z,1.00
2019-04-16T05:22:35.083Z,1.00
2019-04-16T05:25:05.003Z,1.00
2019-04-16T05:27:40.225Z,1.00
2019-04-16T05:30:06.873Z,1.00
2019-04-16T05:32:36.739Z,1.00
2019-04-16T05:35:09.590Z,1.00
2019-04-16T05:37:38.008Z,1.00
2019-04-16T05:40:08.204Z,1.00
2019-04-16T05:42:38.137Z,1.00
2019-04-16T05:45:08.730Z,1.00
2019-04-16T05:47:40.146Z,1.00
2019-04-16T05:50:14.369Z,1.00
2019-04-16T05:52:46.444Z,1.00
2019-04-16T05:55:36.043Z,1.00
2019-04-16T05:58:06.599Z,1.00
2019-04-16T06:01:07.274Z,1.00
2019-04-16T06:03:42.162Z,1.00
2019-04-16T06:06:13.263Z,1.00
2019-04-16T06:08:43.485Z,1.00
2019-04-16T06:11:26.702Z,1.00
2019-04-16T06:13:56.085Z,1.00
2019-04-16T06:16:44.158Z,1.00
2019-04-16T06:19:51.086Z,1.00
2019-04-16T06:22:41.790Z,1.00
2019-04-16T06:25:41.018Z,1.00
2019-04-16T06:28:26.800Z,1.00
2019-04-16T06:31:21.652Z,1.00
2019-04-16T06:34:02.389Z,1.00
2019-04-16T06:36:50.070Z,1.00
2019-04-16T06:39:45.080Z,1.00
2019-04-16T06:42:29.090Z,1.00
2019-04-16T06:45:01.696Z,1.00
2019-04-16T06:48:00.132Z,1.00
2019-04-16T06:50:47.446Z,1.00
2019-04-16T06:53:38.435Z,1.00
2019-04-16T06:56:20.690Z,1.00
2019-04-16T06:58:57.176Z,1.00
2019-04-16T07:01:57.813Z,1.00
2019-04-16T07:04:35.441Z,1.00
2019-04-16T07:07:40.081Z,1.00
2019-04-16T07:10:09.183Z,1.00
2019-04-16T07:12:39.324Z,1.00
2019-04-16T07:15:10.012Z,1.00
2019-04-16T07:17:40.646Z,99.90
2019-04-16T07:20:13.493Z,1.00
2019-04-16T07:22:44.012Z,1.00
2019-04-16T07:25:14.347Z,1.00
2019-04-16T07:27:58.976Z,99.90
2019-04-16T07:30:39.812Z,99.90
2019-04-16T07:33:17.251Z,99.90
2019-04-16T07:36:18.331Z,1.00
2019-04-16T07:39:28.210Z,53.90
2019-04-16T07:42:22.182Z,79.70
2019-04-16T07:45:11.385Z,82.70
2019-04-16T07:47:57.746Z,83.50
2019-04-16T07:50:48.657Z,83.40
2019-04-16T07:53:28.445Z,83.10
2019-04-16T07:56:04.289Z,83.10
2019-04-16T07:58:34.306Z,81.60
2019-04-16T08:01:04.352Z,81.40
2019-04-16T08:03:34.131Z,80.90
2019-04-16T08:06:04.153Z,80.70
2019-04-16T08:08:34.171Z,81.00
2019-04-16T08:11:04.709Z,79.70
2019-04-16T08:13:35.847Z,78.80
2019-04-16T08:16:05.723Z,76.00
2019-04-16T08:18:37.801Z,75.90
2019-04-16T08:21:12.077Z,74.40
2019-04-16T08:23:42.462Z,72.50
2019-04-16T08:26:13.836Z,71.20
2019-04-16T08:28:46.731Z,70.70
2019-04-16T08:31:20.319Z,69.40
2019-04-16T08:33:50.421Z,67.30
2019-04-16T08:36:20.113Z,69.00
2019-04-16T08:38:50.159Z,68.60
2019-04-16T08:41:21.446Z,66.40
2019-04-16T08:43:51.317Z,65.50
2019-04-16T08:46:23.913Z,66.10
2019-04-16T08:48:54.707Z,65.80
2019-04-16T08:51:30.819Z,66.30
2019-04-16T08:53:55.921Z,65.40
2019-04-16T08:56:25.839Z,65.30
2019-04-16T08:58:59.905Z,64.30
2019-04-16T09:01:29.591Z,64.00
2019-04-16T09:04:03.133Z,61.90
2019-04-16T09:06:33.134Z,62.00
2019-04-16T09:09:24.610Z,60.60
2019-04-16T09:11:56.478Z,60.20
2019-04-16T09:14:28.466Z,59.90
2019-04-16T09:17:11.324Z,59.80
2019-04-16T09:19:43.954Z,58.30
2019-04-16T09:22:26.267Z,57.80
2019-04-16T09:25:00.901Z,57.60
2019-04-16T09:27:34.483Z,56.70
2019-04-16T09:30:27.613Z,57.60
2019-04-16T09:33:10.634Z,56.10
2019-04-16T09:35:58.172Z,55.00
2019-04-16T09:38:45.158Z,54.50
2019-04-16T09:41:44.172Z,54.40
2019-04-16T09:44:15.755Z,54.90
2019-04-16T09:46:51.166Z,53.90
2019-04-16T09:49:17.518Z,53.50
2019-04-16T09:51:50.325Z,52.30
2019-04-16T09:54:18.972Z,51.50
2019-04-16T09:56:50.065Z,50.70
2019-04-16T09:59:44.754Z,46.30
2019-04-16T10:02:17.677Z,42.30
2019-04-16T10:04:47.480Z,38.60
2019-04-16T10:07:17.255Z,37.00
2019-04-16T10:09:47.276Z,34.80
2019-04-16T10:12:18.334Z,33.10
2019-04-16T10:14:48.141Z,32.60
2019-04-16T10:17:17.952Z,32.20
2019-04-16T10:19:47.903Z,31.20
2019-04-16T10:22:18.041Z,30.20
2019-04-16T10:25:16.647Z,30.00
2019-04-16T10:27:52.976Z,30.30
2019-04-16T10:30:29.776Z,29.60
2019-04-16T10:33:01.655Z,29.80
2019-04-16T10:35:42.770Z,30.20
2019-04-16T10:38:40.020Z,29.90
2019-04-16T10:41:31.052Z,29.00
2019-04-16T10:44:18.512Z,28.60
2019-04-16T10:47:31.371Z,28.40
2019-04-16T10:50:10.382Z,28.50
2019-04-16T10:52:57.711Z,28.40
2019-04-16T10:55:35.060Z,28.20
2019-04-16T10:58:24.099Z,28.50
2019-04-16T11:01:08.556Z,29.10
2019-04-16T11:04:04.817Z,28.70
2019-04-16T11:06:41.520Z,28.70
2019-04-16T11:09:11.443Z,28.60
2019-04-16T11:11:41.436Z,28.90
2019-04-16T11:14:11.512Z,29.60
2019-04-16T11:16:43.595Z,29.30
2019-04-16T11:19:13.665Z,29.30
2019-04-16T11:21:43.696Z,29.10
2019-04-16T11:24:15.733Z,28.70
2019-04-16T11:26:52.429Z,28.40
2019-04-16T11:29:22.608Z,28.80
2019-04-16T11:31:52.469Z,28.90
2019-04-16T11:34:22.415Z,28.60
2019-04-16T11:36:52.367Z,28.20
2019-04-16T11:39:22.232Z,27.80
2019-04-16T11:41:52.206Z,27.40
2019-04-16T11:44:22.182Z,26.60
2019-04-16T11:46:51.996Z,26.50
2019-04-16T11:49:22.076Z,26.60
2019-04-16T11:51:52.040Z,26.30
2019-04-16T11:54:21.926Z,26.40
2019-04-16T11:56:51.760Z,26.40
2019-04-16T11:59:21.749Z,25.90
2019-04-16T12:02:10.627Z,25.90
2019-04-16T12:05:02.612Z,26.20
2019-04-16T12:07:52.253Z,26.10
2019-04-16T12:10:59.046Z,25.80
2019-04-16T12:13:52.878Z,26.10
2019-04-16T12:16:41.509Z,25.90
2019-04-16T12:19:36.240Z,26.20
2019-04-16T12:22:31.484Z,26.30
2019-04-16T12:25:23.348Z,26.40
2019-04-16T12:28:31.836Z,26.50
2019-04-16T12:31:19.827Z,26.20
2019-04-16T12:33:54.734Z,26.60
2019-04-16T12:36:42.755Z,26.60
2019-04-16T12:39:35.331Z,26.10
2019-04-16T12:42:06.879Z,26.20
2019-04-16T12:44:51.563Z,26.60
2019-04-16T12:47:35.698Z,26.30
2019-04-16T12:50:31.992Z,26.20
2019-04-16T12:53:07.070Z,26.60
2019-04-16T12:55:58.843Z,26.30
2019-04-16T12:59:00.984Z,26.20
2019-04-16T13:01:37.650Z,26.00
2019-04-16T13:04:11.497Z,25.60
2019-04-16T13:06:57.695Z,25.50
2019-04-16T13:10:01.707Z,25.70
2019-04-16T13:12:58.135Z,25.90
2019-04-16T13:15:46.732Z,26.00
2019-04-16T13:18:41.625Z,26.40
2019-04-16T13:21:28.442Z,27.10
2019-04-16T13:24:13.151Z,27.80
2019-04-16T13:27:14.007Z,28.00
2019-04-16T13:29:43.758Z,27.50
2019-04-16T13:32:13.995Z,27.00
2019-04-16T13:34:44.050Z,26.90
2019-04-16T13:37:13.949Z,27.00
2019-04-16T13:39:59.529Z,27.10
2019-04-16T13:42:30.250Z,26.60
2019-04-16T13:45:17.581Z,26.50
2019-04-16T13:47:48.294Z,26.10
2019-04-16T13:50:25.961Z,26.50
2019-04-16T13:53:01.570Z,26.50
2019-04-16T13:55:57.082Z,26.40
2019-04-16T13:58:40.579Z,26.20
2019-04-16T14:01:19.646Z,26.30
2019-04-16T14:03:49.607Z,27.10
2019-04-16T14:06:19.481Z,27.20
2019-04-16T14:08:49.432Z,27.30
2019-04-16T14:11:25.971Z,26.90
2019-04-16T14:13:55.811Z,27.00
2019-04-16T14:16:25.809Z,27.10
2019-04-16T14:18:55.649Z,27.40
2019-04-16T14:21:26.058Z,28.10
2019-04-16T14:23:56.068Z,28.10
2019-04-16T14:26:25.820Z,28.10
2019-04-16T14:28:56.989Z,27.70
2019-04-16T14:31:27.569Z,27.50
2019-04-16T14:34:06.514Z,27.80
2019-04-16T14:36:36.441Z,28.10
2019-04-16T14:39:25.899Z,28.30
2019-04-16T14:41:55.812Z,28.70
2019-04-16T14:44:27.532Z,29.10
2019-04-16T14:47:00.578Z,29.60
2019-04-16T14:49:30.073Z,30.00
2019-04-16T14:52:03.096Z,30.90
2019-04-16T14:54:47.515Z,31.60
2019-04-16T14:57:18.068Z,32.40
2019-04-16T14:59:58.800Z,32.80
2019-04-16T15:02:45.679Z,33.70
2019-04-16T15:05:33.320Z,34.30
2019-04-16T15:08:20.554Z,34.80
2019-04-16T15:11:09.323Z,35.30
2019-04-16T15:13:56.807Z,35.60
2019-04-16T15:17:01.013Z,35.40
2019-04-16T15:19:48.719Z,35.60
2019-04-16T15:22:31.716Z,35.90
2019-04-16T15:25:21.312Z,36.30
2019-04-16T15:28:21.442Z,36.50
2019-04-16T15:31:05.714Z,36.50
2019-04-16T15:33:52.487Z,36.20
2019-04-16T15:36:29.567Z,36.30
2019-04-16T15:39:18.519Z,36.40
2019-04-16T15:42:19.744Z,36.80
2019-04-16T15:45:25.627Z,37.30
2019-04-16T15:48:29.768Z,36.50
2019-04-16T15:51:21.655Z,34.70
2019-04-16T15:54:16.361Z,99.90
2019-04-16T15:57:07.900Z,1.00
2019-04-16T15:59:41.972Z,1.00
2019-04-16T16:02:33.575Z,1.00
2019-04-16T16:05:22.410Z,1.00
2019-04-16T16:08:01.816Z,1.00
2019-04-16T16:10:36.667Z,1.00
2019-04-16T16:13:06.414Z,1.00
2019-04-16T16:15:40.203Z,1.00
2019-04-16T16:18:07.841Z,1.00
2019-04-16T16:20:37.750Z,26.60
2019-04-16T16:23:07.474Z,99.90
2019-04-16T16:25:41.157Z,1.00
2019-04-16T16:28:08.614Z,34.30
2019-04-16T16:30:38.605Z,99.90
2019-04-16T16:33:08.845Z,1.00
2019-04-16T16:35:38.981Z,99.90
2019-04-16T16:38:11.155Z,99.90
2019-04-16T16:40:40.408Z,1.00
2019-04-16T16:43:10.153Z,94.20
2019-04-16T16:45:49.064Z,1.00
2019-04-16T16:48:22.936Z,1.00
2019-04-16T16:50:58.725Z,1.00
2019-04-16T16:53:40.614Z,99.90
2019-04-16T16:56:39.050Z,99.90
2019-04-16T16:59:37.620Z,17.90
2019-04-16T17:02:26.340Z,99.90
2019-04-16T17:04:56.215Z,1.00
2019-04-16T17:07:26.148Z,1.00
2019-04-16T17:09:56.477Z,1.00
2019-04-16T17:12:26.381Z,1.00
2019-04-16T17:14:56.005Z,99.90
2019-04-16T17:17:25.978Z,1.00
2019-04-16T17:19:55.969Z,1.00
2019-04-16T17:22:32.623Z,1.00
2019-04-16T17:25:02.330Z,99.90
2019-04-16T17:27:32.139Z,99.90
2019-04-16T17:30:04.126Z,1.00
2019-04-16T17:32:36.716Z,1.00
2019-04-16T17:35:07.881Z,42.50
2019-04-16T17:37:43.849Z,99.90
2019-04-16T17:40:21.822Z,99.90
2019-04-16T17:42:55.326Z,99.90
2019-04-16T17:46:00.432Z,99.90
2019-04-16T17:48:52.224Z,99.90
2019-04-16T17:51:56.754Z,1.00
2019-04-16T17:54:38.464Z,1.00
2019-04-16T17:57:33.338Z,1.00
2019-04-16T18:00:34.621Z,1.00
2019-04-16T18:03:37.268Z,1.00
2019-04-16T18:06:29.184Z,1.00
2019-04-16T18:09:10.664Z,1.00
2019-04-16T18:11:55.352Z,1.00
2019-04-16T18:14:51.972Z,1.00
2019-04-16T18:17:47.343Z,1.00
2019-04-16T18:20:32.908Z,1.00
2019-04-16T18:23:21.648Z,1.00
2019-04-16T18:26:29.434Z,1.00
2019-04-16T18:29:02.670Z,1.00
2019-04-16T18:31:56.020Z,1.00
2019-04-16T18:34:43.488Z,1.00
2019-04-16T18:37:48.710Z,1.00
2019-04-16T18:40:39.444Z,1.00
2019-04-16T18:43:30.582Z,1.00
2019-04-16T18:46:20.483Z,1.00
2019-04-16T18:49:01.271Z,1.00
2019-04-16T18:51:33.542Z,1.00
2019-04-16T18:54:02.787Z,1.00
2019-04-16T18:56:41.481Z,1.00
2019-04-16T18:59:11.845Z,1.00
2019-04-16T19:01:43.280Z,1.00
2019-04-16T19:04:13.624Z,1.00
2019-04-16T19:06:47.608Z,1.00
2019-04-16T19:09:20.998Z,1.00
2019-04-16T19:11:55.586Z,1.00
2019-04-16T19:14:25.715Z,1.00
2019-04-16T19:17:08.160Z,1.00
2019-04-16T19:19:44.322Z,1.00
2019-04-16T19:22:18.488Z,1.00
2019-04-16T19:24:59.903Z,1.00
2019-04-16T19:27:30.810Z,1.00
2019-04-16T19:30:01.926Z,1.00
2019-04-16T19:32:35.154Z,1.00
2019-04-16T19:35:10.012Z,1.00
2019-04-16T19:37:38.586Z,1.00
2019-04-16T19:40:09.019Z,1.00
2019-04-16T19:42:39.229Z,1.00
2019-04-16T19:45:12.036Z,1.00
2019-04-16T19:47:41.470Z,1.00
2019-04-16T19:50:11.741Z,1.00
2019-04-16T19:52:45.446Z,1.00
2019-04-16T19:55:18.862Z,1.00
2019-04-16T19:57:55.995Z,1.00
2019-04-16T20:00:24.622Z,1.00
2019-04-16T20:02:54.659Z,1.00
2019-04-16T20:05:28.495Z,1.00
2019-04-16T20:07:56.454Z,1.00
2019-04-16T20:10:34.658Z,1.00
2019-04-16T20:13:04.840Z,1.00
2019-04-16T20:15:34.802Z,1.00
2019-04-16T20:18:07.080Z,1.00
2019-04-16T20:20:42.017Z,1.00
2019-04-16T20:23:12.054Z,1.00
2019-04-16T20:25:45.994Z,1.00
2019-04-16T20:28:18.050Z,1.00
2019-04-16T20:30:47.989Z,1.00
2019-04-16T20:33:17.882Z,1.00
2019-04-16T20:35:53.316Z,1.00
2019-04-16T20:38:29.315Z,1.00
2019-04-16T20:40:58.029Z,1.00
2019-04-16T20:43:31.866Z,1.00
2019-04-16T20:46:21.200Z,1.00
2019-04-16T20:49:05.691Z,1.00
2019-04-16T20:51:26.227Z,1.00
2019-04-16T20:53:57.540Z,1.00
2019-04-16T20:56:27.282Z,1.00
2019-04-16T20:59:05.675Z,1.00
2019-04-16T21:01:37.639Z,1.00
2019-04-16T21:04:06.984Z,1.00
2019-04-16T21:06:47.720Z,1.00
2019-04-16T21:09:17.403Z,1.00
2019-04-16T21:11:47.270Z,1.00
2019-04-16T21:14:21.778Z,1.00
2019-04-16T21:16:56.680Z,1.00
2019-04-16T21:19:46.779Z,1.00
2019-04-16T21:22:31.515Z,1.00
2019-04-16T21:25:01.172Z,1.00
2019-04-16T21:27:32.741Z,1.00
2019-04-16T21:30:03.094Z,1.00
2019-04-16T21:32:49.773Z,1.00
2019-04-16T21:35:25.187Z,1.00
2019-04-16T21:38:16.574Z,1.00
2019-04-16T21:40:46.257Z,1.00
2019-04-16T21:43:18.572Z,1.00
2019-04-16T21:45:58.417Z,1.00
2019-04-16T21:48:29.023Z,1.00
2019-04-16T21:50:59.085Z,1.00
2019-04-16T21:53:29.024Z,1.00
2019-04-16T21:56:07.823Z,1.00
2019-04-16T21:58:40.569Z,1.00
2019-04-16T22:01:27.310Z,1.00
2019-04-16T22:04:14.424Z,1.00
2019-04-16T22:06:49.093Z,1.00
2019-04-16T22:09:19.105Z,1.00
2019-04-16T22:12:01.546Z,1.00
2019-04-16T22:14:31.310Z,1.00
2019-04-16T22:17:04.157Z,1.00
2019-04-16T22:19:54.044Z,1.00
2019-04-16T22:22:14.916Z,1.00
2019-04-16T22:24:51.789Z,1.00
2019-04-16T22:27:25.511Z,1.00
2019-04-16T22:29:55.389Z,1.00
2019-04-16T22:32:27.097Z,1.00
2019-04-16T22:34:58.936Z,1.00
2019-04-16T22:37:37.001Z,1.00
2019-04-16T22:40:44.422Z,1.00
2019-04-16T22:43:51.445Z,1.00
2019-04-16T22:46:27.833Z,1.00
2019-04-16T22:49:02.416Z,1.00
2019-04-16T22:51:32.231Z,1.00
2019-04-16T22:54:13.172Z,1.00
2019-04-16T22:56:47.609Z,1.00
2019-04-16T22:59:21.220Z,1.00
2019-04-16T23:01:53.165Z,1.00
2019-04-16T23:04:29.026Z,1.00
2019-04-16T23:07:07.093Z,1.00
2019-04-16T23:09:38.001Z,1.00
2019-04-16T23:12:07.873Z,1.00
2019-04-16T23:14:37.553Z,1.00
2019-04-16T23:17:07.471Z,1.00
2019-04-16T23:19:37.258Z,1.00
2019-04-16T23:22:06.933Z,1.00
2019-04-16T23:24:36.812Z,1.00
2019-04-16T23:27:06.735Z,1.00
2019-04-16T23:29:36.679Z,1.00
2019-04-16T23:32:06.374Z,1.00
2019-04-16T23:34:37.943Z,1.00
2019-04-16T23:37:07.859Z,1.00
2019-04-16T23:39:37.653Z,1.00
2019-04-16T23:42:10.001Z,1.00
2019-04-16T23:45:17.042Z,1.00
2019-04-16T23:48:13.980Z,1.00
2019-04-16T23:50:52.152Z,1.00
2019-04-16T23:53:58.929Z,1.00
2019-04-16T23:56:41.406Z,1.00
2019-04-16T23:59:18.568Z,1.00
